sensor_id;sensor_type;location;lat;lon;timestamp;temperature;humidity
23629;DHT22;11991;57.150;-2.134;2023-04-01T00:00:09;6.20;99.90
23629;DHT22;11991;57.150;-2.134;2023-04-01T00:02:39;6.20;99.90
23629;DHT22;11991;57.150;-2.134;2023-04-01T00:05:08;6.10;99.90
23629;DHT22;11991;57.150;-2.134;2023-04-01T00:07:38;6.10;99.90
23629;DHT22;11991;57.150;-2.134;2023-04-01T00:10:07;6.10;99.90
23629;DHT22;11991;57.150;-2.134;2023-04-01T00:12:35;6.20;99.90
23629;DHT22;11991;57.150;-2.134;2023-04-01T00:15:04;6.20;99.90
23629;DHT22;11991;57.150;-2.134;2023-04-01T00:17:32;6.20;99.90
23629;DHT22;11991;57.150;-2.134;2023-04-01T00:19:59;6.20;99.90
23629;DHT22;11991;57.150;-2.134;2023-04-01T00:22:27;6.20;99.90
23629;DHT22;11991;57.150;-2.134;2023-04-01T00:24:54;6.20;99.90
23629;DHT22;11991;57.150;-2.134;2023-04-01T00:27:21;6.30;99.90
23629;DHT22;11991;57.150;-2.134;2023-04-01T00:29:49;6.30;99.90
23629;DHT22;11991;57.150;-2.134;2023-04-01T00:32:16;6.30;99.90
23629;DHT22;11991;57.150;-2.134;2023-04-01T00:34:43;6.20;99.90
23629;DHT22;11991;57.150;-2.134;2023-04-01T00:37:11;6.20;99.90
23629;DHT22;11991;57.150;-2.134;2023-04-01T00:39:38;6.20;99.90
23629;DHT22;11991;57.150;-2.134;2023-04-01T00:42:06;6.20;99.90
23629;DHT22;11991;57.150;-2.134;2023-04-01T00:44:34;6.30;99.90
23629;DHT22;11991;57.150;-2.134;2023-04-01T00:47:01;6.30;99.90
23629;DHT22;11991;57.150;-2.134;2023-04-01T00:49:36;6.30;99.90
23629;DHT22;11991;57.150;-2.134;2023-04-01T00:52:06;6.30;99.90
23629;DHT22;11991;57.150;-2.134;2023-04-01T00:54:35;6.30;99.90
23629;DHT22;11991;57.150;-2.134;2023-04-01T00:57:14;6.30;99.90
23629;DHT22;11991;57.150;-2.134;2023-04-01T00:59:47;6.30;99.90
23629;DHT22;11991;57.150;-2.134;2023-04-01T01:02:14;6.20;99.90
23629;DHT22;11991;57.150;-2.134;2023-04-01T01:04:42;6.20;99.90
23629;DHT22;11991;57.150;-2.134;2023-04-01T01:10:17;6.10;99.90
23629;DHT22;11991;57.150;-2.134;2023-04-01T01:18:15;6.10;99.90
23629;DHT22;11991;57.150;-2.134;2023-04-01T01:35:33;6.00;99.90
23629;DHT22;11991;57.150;-2.134;2023-04-01T01:38:11;6.00;99.90
23629;DHT22;11991;57.150;-2.134;2023-04-01T01:40:46;6.10;99.90
23629;DHT22;11991;57.150;-2.134;2023-04-01T01:43:19;6.00;99.90
23629;DHT22;11991;57.150;-2.134;2023-04-01T01:45:52;6.00;99.90
23629;DHT22;11991;57.150;-2.134;2023-04-01T01:48:22;6.00;99.90
23629;DHT22;11991;57.150;-2.134;2023-04-01T01:50:51;6.00;99.90
23629;DHT22;11991;57.150;-2.134;2023-04-01T01:53:19;6.00;99.90
23629;DHT22;11991;57.150;-2.134;2023-04-01T01:55:47;6.00;99.90
23629;DHT22;11991;57.150;-2.134;2023-04-01T02:00:48;6.00;99.90
23629;DHT22;11991;57.150;-2.134;2023-04-01T02:03:20;6.10;99.90
23629;DHT22;11991;57.150;-2.134;2023-04-01T02:05:50;6.10;99.90
23629;DHT22;11991;57.150;-2.134;2023-04-01T02:08:25;6.10;99.90
23629;DHT22;11991;57.150;-2.134;2023-04-01T02:11:03;6.00;99.90
23629;DHT22;11991;57.150;-2.134;2023-04-01T02:13:55;6.00;99.90
23629;DHT22;11991;57.150;-2.134;2023-04-01T02:16:28;6.10;99.90
23629;DHT22;11991;57.150;-2.134;2023-04-01T02:18:59;6.10;99.90
23629;DHT22;11991;57.150;-2.134;2023-04-01T02:21:31;6.10;99.90
23629;DHT22;11991;57.150;-2.134;2023-04-01T02:24:01;6.10;99.90
23629;DHT22;11991;57.150;-2.134;2023-04-01T02:26:30;6.10;99.90
23629;DHT22;11991;57.150;-2.134;2023-04-01T02:28:59;6.10;99.90
23629;DHT22;11991;57.150;-2.134;2023-04-01T02:31:28;6.10;99.90
23629;DHT22;11991;57.150;-2.134;2023-04-01T02:33:56;6.10;99.90
23629;DHT22;11991;57.150;-2.134;2023-04-01T02:36:24;6.10;99.90
23629;DHT22;11991;57.150;-2.134;2023-04-01T02:38:52;6.10;99.90
23629;DHT22;11991;57.150;-2.134;2023-04-01T02:41:21;6.00;99.90
23629;DHT22;11991;57.150;-2.134;2023-04-01T02:43:48;6.00;99.90
23629;DHT22;11991;57.150;-2.134;2023-04-01T02:46:16;6.00;99.90
23629;DHT22;11991;57.150;-2.134;2023-04-01T02:48:43;6.00;99.90
23629;DHT22;11991;57.150;-2.134;2023-04-01T02:51:10;6.00;99.90
23629;DHT22;11991;57.150;-2.134;2023-04-01T02:53:38;6.00;99.90
23629;DHT22;11991;57.150;-2.134;2023-04-01T02:56:05;6.00;99.90
23629;DHT22;11991;57.150;-2.134;2023-04-01T02:58:32;6.10;99.90
23629;DHT22;11991;57.150;-2.134;2023-04-01T03:01:00;6.10;99.90
23629;DHT22;11991;57.150;-2.134;2023-04-01T03:03:27;6.10;99.90
23629;DHT22;11991;57.150;-2.134;2023-04-01T03:05:54;6.10;99.90
23629;DHT22;11991;57.150;-2.134;2023-04-01T03:08:25;6.10;99.90
23629;DHT22;11991;57.150;-2.134;2023-04-01T03:10:52;6.10;99.90
23629;DHT22;11991;57.150;-2.134;2023-04-01T03:13:20;6.10;99.90
23629;DHT22;11991;57.150;-2.134;2023-04-01T03:15:48;6.10;99.90
23629;DHT22;11991;57.150;-2.134;2023-04-01T03:18:15;6.10;99.90
23629;DHT22;11991;57.150;-2.134;2023-04-01T03:20:42;6.10;99.90
23629;DHT22;11991;57.150;-2.134;2023-04-01T03:23:10;6.20;99.90
23629;DHT22;11991;57.150;-2.134;2023-04-01T03:25:38;6.20;99.90
23629;DHT22;11991;57.150;-2.134;2023-04-01T03:28:05;6.20;99.90
23629;DHT22;11991;57.150;-2.134;2023-04-01T03:30:32;6.20;99.90
23629;DHT22;11991;57.150;-2.134;2023-04-01T03:33:00;6.20;99.90
23629;DHT22;11991;57.150;-2.134;2023-04-01T03:35:30;6.20;99.90
23629;DHT22;11991;57.150;-2.134;2023-04-01T03:37:58;6.20;99.90
23629;DHT22;11991;57.150;-2.134;2023-04-01T03:40:25;6.20;99.90
23629;DHT22;11991;57.150;-2.134;2023-04-01T03:42:53;6.20;99.90
23629;DHT22;11991;57.150;-2.134;2023-04-01T03:45:21;6.30;99.90
23629;DHT22;11991;57.150;-2.134;2023-04-01T03:47:48;6.30;99.90
23629;DHT22;11991;57.150;-2.134;2023-04-01T03:50:16;6.20;99.90
23629;DHT22;11991;57.150;-2.134;2023-04-01T03:52:43;6.20;99.90
23629;DHT22;11991;57.150;-2.134;2023-04-01T03:55:10;6.20;99.90
23629;DHT22;11991;57.150;-2.134;2023-04-01T03:57:39;6.20;99.90
23629;DHT22;11991;57.150;-2.134;2023-04-01T04:00:15;6.20;99.90
23629;DHT22;11991;57.150;-2.134;2023-04-01T04:02:44;6.30;99.90
23629;DHT22;11991;57.150;-2.134;2023-04-01T04:05:17;6.30;99.90
23629;DHT22;11991;57.150;-2.134;2023-04-01T04:07:44;6.30;99.90
23629;DHT22;11991;57.150;-2.134;2023-04-01T04:10:11;6.30;99.90
23629;DHT22;11991;57.150;-2.134;2023-04-01T04:12:38;6.40;99.90
23629;DHT22;11991;57.150;-2.134;2023-04-01T04:15:08;6.40;99.90
23629;DHT22;11991;57.150;-2.134;2023-04-01T04:17:35;6.40;99.90
23629;DHT22;11991;57.150;-2.134;2023-04-01T04:20:03;6.40;99.90
23629;DHT22;11991;57.150;-2.134;2023-04-01T04:22:30;6.40;99.90
23629;DHT22;11991;57.150;-2.134;2023-04-01T04:24:58;6.40;99.90
23629;DHT22;11991;57.150;-2.134;2023-04-01T04:27:25;6.30;99.90
23629;DHT22;11991;57.150;-2.134;2023-04-01T04:30:01;6.30;99.90
23629;DHT22;11991;57.150;-2.134;2023-04-01T04:32:30;6.30;99.90
23629;DHT22;11991;57.150;-2.134;2023-04-01T04:34:57;6.30;99.90
23629;DHT22;11991;57.150;-2.134;2023-04-01T04:37:24;6.30;99.90
23629;DHT22;11991;57.150;-2.134;2023-04-01T04:39:53;6.30;99.90
23629;DHT22;11991;57.150;-2.134;2023-04-01T04:42:20;6.30;99.90
23629;DHT22;11991;57.150;-2.134;2023-04-01T04:44:48;6.30;99.90
23629;DHT22;11991;57.150;-2.134;2023-04-01T04:47:16;6.20;99.90
23629;DHT22;11991;57.150;-2.134;2023-04-01T04:49:43;6.20;99.90
23629;DHT22;11991;57.150;-2.134;2023-04-01T04:52:10;6.20;99.90
23629;DHT22;11991;57.150;-2.134;2023-04-01T04:54:37;6.20;99.90
23629;DHT22;11991;57.150;-2.134;2023-04-01T04:57:04;6.20;99.90
23629;DHT22;11991;57.150;-2.134;2023-04-01T04:59:38;6.20;99.90
23629;DHT22;11991;57.150;-2.134;2023-04-01T05:02:12;6.20;99.90
23629;DHT22;11991;57.150;-2.134;2023-04-01T05:04:39;6.20;99.90
23629;DHT22;11991;57.150;-2.134;2023-04-01T05:07:09;6.20;99.90
23629;DHT22;11991;57.150;-2.134;2023-04-01T05:09:36;6.20;99.90
23629;DHT22;11991;57.150;-2.134;2023-04-01T05:12:04;6.10;99.90
23629;DHT22;11991;57.150;-2.134;2023-04-01T05:14:54;6.10;99.90
23629;DHT22;11991;57.150;-2.134;2023-04-01T05:17:22;6.10;99.90
23629;DHT22;11991;57.150;-2.134;2023-04-01T05:19:49;6.10;99.90
23629;DHT22;11991;57.150;-2.134;2023-04-01T05:22:16;6.10;99.90
23629;DHT22;11991;57.150;-2.134;2023-04-01T05:24:43;6.20;99.90
23629;DHT22;11991;57.150;-2.134;2023-04-01T05:27:11;6.20;99.90
23629;DHT22;11991;57.150;-2.134;2023-04-01T05:29:40;6.20;99.90
23629;DHT22;11991;57.150;-2.134;2023-04-01T05:32:14;6.10;99.90
23629;DHT22;11991;57.150;-2.134;2023-04-01T05:34:42;6.20;99.90
23629;DHT22;11991;57.150;-2.134;2023-04-01T05:37:09;6.20;99.90
23629;DHT22;11991;57.150;-2.134;2023-04-01T05:39:38;6.20;99.90
23629;DHT22;11991;57.150;-2.134;2023-04-01T05:42:06;6.20;99.90
23629;DHT22;11991;57.150;-2.134;2023-04-01T05:44:35;6.20;99.90
23629;DHT22;11991;57.150;-2.134;2023-04-01T05:47:03;6.20;99.90
23629;DHT22;11991;57.150;-2.134;2023-04-01T05:49:33;6.20;99.90
23629;DHT22;11991;57.150;-2.134;2023-04-01T05:52:01;6.20;99.90
23629;DHT22;11991;57.150;-2.134;2023-04-01T05:54:30;6.20;99.90
23629;DHT22;11991;57.150;-2.134;2023-04-01T05:56:57;6.20;99.90
23629;DHT22;11991;57.150;-2.134;2023-04-01T05:59:24;6.10;99.90
23629;DHT22;11991;57.150;-2.134;2023-04-01T06:01:51;6.10;99.90
23629;DHT22;11991;57.150;-2.134;2023-04-01T06:04:19;6.20;99.90
23629;DHT22;11991;57.150;-2.134;2023-04-01T06:06:47;6.20;99.90
23629;DHT22;11991;57.150;-2.134;2023-04-01T06:09:29;6.20;99.90
23629;DHT22;11991;57.150;-2.134;2023-04-01T06:17:20;6.20;99.90
23629;DHT22;11991;57.150;-2.134;2023-04-01T06:20:02;6.20;99.90
23629;DHT22;11991;57.150;-2.134;2023-04-01T06:43:12;6.30;99.90
23629;DHT22;11991;57.150;-2.134;2023-04-01T06:46:36;6.30;99.90
23629;DHT22;11991;57.150;-2.134;2023-04-01T06:49:46;6.30;99.90
23629;DHT22;11991;57.150;-2.134;2023-04-01T06:58:45;6.30;99.90
23629;DHT22;11991;57.150;-2.134;2023-04-01T07:01:35;6.30;99.90
23629;DHT22;11991;57.150;-2.134;2023-04-01T07:04:14;6.30;99.90
23629;DHT22;11991;57.150;-2.134;2023-04-01T07:06:53;6.30;99.90
23629;DHT22;11991;57.150;-2.134;2023-04-01T07:09:26;6.30;99.90
23629;DHT22;11991;57.150;-2.134;2023-04-01T07:12:21;6.30;99.90
23629;DHT22;11991;57.150;-2.134;2023-04-01T07:18:48;6.30;99.90
23629;DHT22;11991;57.150;-2.134;2023-04-01T07:21:35;6.30;99.90
23629;DHT22;11991;57.150;-2.134;2023-04-01T07:24:36;6.30;99.90
23629;DHT22;11991;57.150;-2.134;2023-04-01T07:27:12;6.40;99.90
23629;DHT22;11991;57.150;-2.134;2023-04-01T07:29:41;6.40;99.90
23629;DHT22;11991;57.150;-2.134;2023-04-01T07:35:30;6.40;99.90
23629;DHT22;11991;57.150;-2.134;2023-04-01T07:37:34;6.50;99.90
23629;DHT22;11991;57.150;-2.134;2023-04-01T07:40:10;6.50;99.90
23629;DHT22;11991;57.150;-2.134;2023-04-01T07:45:50;6.50;99.90
23629;DHT22;11991;57.150;-2.134;2023-04-01T07:51:16;6.50;99.90
23629;DHT22;11991;57.150;-2.134;2023-04-01T07:54:12;6.50;99.90
23629;DHT22;11991;57.150;-2.134;2023-04-01T08:05:14;6.60;99.90
23629;DHT22;11991;57.150;-2.134;2023-04-01T08:14:08;6.60;99.90
23629;DHT22;11991;57.150;-2.134;2023-04-01T08:17:44;6.60;99.90
23629;DHT22;11991;57.150;-2.134;2023-04-01T08:23:36;6.60;99.90
23629;DHT22;11991;57.150;-2.134;2023-04-01T08:26:35;6.60;99.90
23629;DHT22;11991;57.150;-2.134;2023-04-01T08:29:09;6.60;99.90
23629;DHT22;11991;57.150;-2.134;2023-04-01T08:34:19;6.60;99.90
23629;DHT22;11991;57.150;-2.134;2023-04-01T08:36:54;6.60;99.90
23629;DHT22;11991;57.150;-2.134;2023-04-01T08:39:32;6.60;99.90
23629;DHT22;11991;57.150;-2.134;2023-04-01T08:45:28;6.60;99.90
23629;DHT22;11991;57.150;-2.134;2023-04-01T08:51:09;6.60;99.90
23629;DHT22;11991;57.150;-2.134;2023-04-01T09:03:30;6.70;99.90
23629;DHT22;11991;57.150;-2.134;2023-04-01T09:25:38;6.50;99.90
23629;DHT22;11991;57.150;-2.134;2023-04-01T09:28:18;6.50;99.90
23629;DHT22;11991;57.150;-2.134;2023-04-01T09:36:33;6.50;99.90
23629;DHT22;11991;57.150;-2.134;2023-04-01T09:45:00;6.50;99.90
23629;DHT22;11991;57.150;-2.134;2023-04-01T09:53:00;6.50;99.90
23629;DHT22;11991;57.150;-2.134;2023-04-01T10:14:27;6.70;99.90
23629;DHT22;11991;57.150;-2.134;2023-04-01T10:19:53;6.70;99.90
23629;DHT22;11991;57.150;-2.134;2023-04-01T10:43:38;6.80;99.90
23629;DHT22;11991;57.150;-2.134;2023-04-01T11:22:16;6.90;99.90
23629;DHT22;11991;57.150;-2.134;2023-04-01T11:27:53;6.90;99.90
23629;DHT22;11991;57.150;-2.134;2023-04-01T11:33:38;7.00;99.90
23629;DHT22;11991;57.150;-2.134;2023-04-01T11:36:38;7.00;99.90
23629;DHT22;11991;57.150;-2.134;2023-04-01T11:52:01;7.00;99.90
23629;DHT22;11991;57.150;-2.134;2023-04-01T12:11:50;7.20;99.90
23629;DHT22;11991;57.150;-2.134;2023-04-01T12:19:58;7.40;99.90
23629;DHT22;11991;57.150;-2.134;2023-04-01T12:22:50;7.40;99.90
23629;DHT22;11991;57.150;-2.134;2023-04-01T12:30:50;7.50;99.90
23629;DHT22;11991;57.150;-2.134;2023-04-01T12:36:17;7.40;99.90
23629;DHT22;11991;57.150;-2.134;2023-04-01T12:39:17;7.50;99.90
23629;DHT22;11991;57.150;-2.134;2023-04-01T12:44:42;7.50;99.90
23629;DHT22;11991;57.150;-2.134;2023-04-01T13:11:23;7.30;99.90
23629;DHT22;11991;57.150;-2.134;2023-04-01T13:17:02;7.20;99.90
23629;DHT22;11991;57.150;-2.134;2023-04-01T13:26:06;7.10;99.90
23629;DHT22;11991;57.150;-2.134;2023-04-01T13:29:10;7.10;99.90
23629;DHT22;11991;57.150;-2.134;2023-04-01T13:37:26;7.20;99.90
23629;DHT22;11991;57.150;-2.134;2023-04-01T13:40:45;7.20;99.90
23629;DHT22;11991;57.150;-2.134;2023-04-01T13:43:36;7.20;99.90
23629;DHT22;11991;57.150;-2.134;2023-04-01T13:49:39;7.20;99.90
23629;DHT22;11991;57.150;-2.134;2023-04-01T13:52:33;7.20;99.90
23629;DHT22;11991;57.150;-2.134;2023-04-01T14:06:45;7.20;99.90
23629;DHT22;11991;57.150;-2.134;2023-04-01T14:37:25;7.40;99.90
23629;DHT22;11991;57.150;-2.134;2023-04-01T14:43:37;7.40;99.90
23629;DHT22;11991;57.150;-2.134;2023-04-01T14:49:20;7.40;99.90
23629;DHT22;11991;57.150;-2.134;2023-04-01T14:51:48;7.30;99.90
23629;DHT22;11991;57.150;-2.134;2023-04-01T14:54:31;7.30;99.90
23629;DHT22;11991;57.150;-2.134;2023-04-01T14:57:16;7.30;99.90
23629;DHT22;11991;57.150;-2.134;2023-04-01T15:00:00;7.40;99.90
23629;DHT22;11991;57.150;-2.134;2023-04-01T15:02:50;7.30;99.90
23629;DHT22;11991;57.150;-2.134;2023-04-01T15:22:13;7.40;99.90
23629;DHT22;11991;57.150;-2.134;2023-04-01T15:38:46;7.30;99.90
23629;DHT22;11991;57.150;-2.134;2023-04-01T15:41:16;7.30;99.90
23629;DHT22;11991;57.150;-2.134;2023-04-01T15:43:49;7.30;99.90
23629;DHT22;11991;57.150;-2.134;2023-04-01T15:46:27;7.30;99.90
23629;DHT22;11991;57.150;-2.134;2023-04-01T15:51:56;7.30;99.90
23629;DHT22;11991;57.150;-2.134;2023-04-01T15:57:30;7.40;99.90
23629;DHT22;11991;57.150;-2.134;2023-04-01T16:00:09;7.50;99.90
23629;DHT22;11991;57.150;-2.134;2023-04-01T16:09:02;7.40;99.90
23629;DHT22;11991;57.150;-2.134;2023-04-01T16:12:10;7.40;99.90
23629;DHT22;11991;57.150;-2.134;2023-04-01T16:23:58;7.40;99.90
23629;DHT22;11991;57.150;-2.134;2023-04-01T16:37:46;7.50;99.90
23629;DHT22;11991;57.150;-2.134;2023-04-01T16:43:21;7.50;99.90
23629;DHT22;11991;57.150;-2.134;2023-04-01T16:54:31;7.40;99.90
23629;DHT22;11991;57.150;-2.134;2023-04-01T17:00:24;7.30;99.90
23629;DHT22;11991;57.150;-2.134;2023-04-01T17:03:08;7.40;99.90
23629;DHT22;11991;57.150;-2.134;2023-04-01T17:11:37;7.30;99.90
23629;DHT22;11991;57.150;-2.134;2023-04-01T17:22:55;7.20;99.90
23629;DHT22;11991;57.150;-2.134;2023-04-01T17:28:27;7.20;99.90
23629;DHT22;11991;57.150;-2.134;2023-04-01T17:31:26;7.20;99.90
23629;DHT22;11991;57.150;-2.134;2023-04-01T17:34:13;7.20;99.90
23629;DHT22;11991;57.150;-2.134;2023-04-01T17:39:57;7.20;99.90
23629;DHT22;11991;57.150;-2.134;2023-04-01T17:42:39;7.20;99.90
23629;DHT22;11991;57.150;-2.134;2023-04-01T17:48:01;7.20;99.90
23629;DHT22;11991;57.150;-2.134;2023-04-01T17:58:44;7.10;99.90
23629;DHT22;11991;57.150;-2.134;2023-04-01T18:04:41;7.10;99.90
23629;DHT22;11991;57.150;-2.134;2023-04-01T18:13:05;7.20;99.90
23629;DHT22;11991;57.150;-2.134;2023-04-01T18:24:33;7.30;99.90
23629;DHT22;11991;57.150;-2.134;2023-04-01T18:29:59;7.40;99.90
23629;DHT22;11991;57.150;-2.134;2023-04-01T18:38:15;7.40;99.90
23629;DHT22;11991;57.150;-2.134;2023-04-01T18:40:50;7.30;99.90
23629;DHT22;11991;57.150;-2.134;2023-04-01T18:48:52;7.30;99.90
23629;DHT22;11991;57.150;-2.134;2023-04-01T18:51:37;7.30;99.90
23629;DHT22;11991;57.150;-2.134;2023-04-01T18:57:12;7.30;99.90
23629;DHT22;11991;57.150;-2.134;2023-04-01T18:59:49;7.30;99.90
23629;DHT22;11991;57.150;-2.134;2023-04-01T19:02:36;7.30;99.90
23629;DHT22;11991;57.150;-2.134;2023-04-01T19:05:19;7.30;99.90
23629;DHT22;11991;57.150;-2.134;2023-04-01T19:07:53;7.30;99.90
23629;DHT22;11991;57.150;-2.134;2023-04-01T19:16:26;7.30;99.90
23629;DHT22;11991;57.150;-2.134;2023-04-01T19:35:49;7.30;99.90
23629;DHT22;11991;57.150;-2.134;2023-04-01T19:38:38;7.30;99.90
23629;DHT22;11991;57.150;-2.134;2023-04-01T19:49:53;7.40;99.90
23629;DHT22;11991;57.150;-2.134;2023-04-01T19:52:31;7.40;99.90
23629;DHT22;11991;57.150;-2.134;2023-04-01T19:55:05;7.50;99.90
23629;DHT22;11991;57.150;-2.134;2023-04-01T20:03:01;7.40;99.90
23629;DHT22;11991;57.150;-2.134;2023-04-01T20:11:33;7.40;99.90
23629;DHT22;11991;57.150;-2.134;2023-04-01T20:19:42;7.50;99.90
23629;DHT22;11991;57.150;-2.134;2023-04-01T20:24:53;7.40;99.90
23629;DHT22;11991;57.150;-2.134;2023-04-01T20:27:27;7.50;99.90
23629;DHT22;11991;57.150;-2.134;2023-04-01T20:30:19;7.50;99.90
23629;DHT22;11991;57.150;-2.134;2023-04-01T20:40:51;7.50;99.90
23629;DHT22;11991;57.150;-2.134;2023-04-01T20:43:33;7.50;99.90
23629;DHT22;11991;57.150;-2.134;2023-04-01T20:49:30;7.50;99.90
23629;DHT22;11991;57.150;-2.134;2023-04-01T20:52:17;7.50;99.90
23629;DHT22;11991;57.150;-2.134;2023-04-01T20:55:19;7.50;99.90
23629;DHT22;11991;57.150;-2.134;2023-04-01T20:58:35;7.40;99.90
23629;DHT22;11991;57.150;-2.134;2023-04-01T21:03:50;7.40;99.90
23629;DHT22;11991;57.150;-2.134;2023-04-01T21:09:49;7.40;99.90
23629;DHT22;11991;57.150;-2.134;2023-04-01T21:12:32;7.40;99.90
23629;DHT22;11991;57.150;-2.134;2023-04-01T21:23:43;7.30;99.90
23629;DHT22;11991;57.150;-2.134;2023-04-01T21:40:21;7.30;99.90
23629;DHT22;11991;57.150;-2.134;2023-04-01T21:43:22;7.30;99.90
23629;DHT22;11991;57.150;-2.134;2023-04-01T21:57:40;7.10;99.90
23629;DHT22;11991;57.150;-2.134;2023-04-01T22:00:25;7.10;99.90
23629;DHT22;11991;57.150;-2.134;2023-04-01T22:06:08;7.10;99.90
23629;DHT22;11991;57.150;-2.134;2023-04-01T22:08:59;7.10;99.90
23629;DHT22;11991;57.150;-2.134;2023-04-01T22:14:51;7.10;99.90
23629;DHT22;11991;57.150;-2.134;2023-04-01T22:17:35;7.10;99.90
23629;DHT22;11991;57.150;-2.134;2023-04-01T22:20:21;7.10;99.90
23629;DHT22;11991;57.150;-2.134;2023-04-01T22:28:37;7.10;99.90
23629;DHT22;11991;57.150;-2.134;2023-04-01T22:31:08;7.10;99.90
23629;DHT22;11991;57.150;-2.134;2023-04-01T22:34:08;7.10;99.90
23629;DHT22;11991;57.150;-2.134;2023-04-01T22:42:18;7.10;99.90
23629;DHT22;11991;57.150;-2.134;2023-04-01T22:45:33;7.10;99.90
23629;DHT22;11991;57.150;-2.134;2023-04-01T22:50:52;7.10;99.90
23629;DHT22;11991;57.150;-2.134;2023-04-01T22:56:21;7.10;99.90
23629;DHT22;11991;57.150;-2.134;2023-04-01T22:59:00;7.10;99.90
23629;DHT22;11991;57.150;-2.134;2023-04-01T23:01:34;7.10;99.90
23629;DHT22;11991;57.150;-2.134;2023-04-01T23:04:04;7.10;99.90
23629;DHT22;11991;57.150;-2.134;2023-04-01T23:06:39;7.10;99.90
23629;DHT22;11991;57.150;-2.134;2023-04-01T23:09:20;7.10;99.90
23629;DHT22;11991;57.150;-2.134;2023-04-01T23:12:00;7.10;99.90
23629;DHT22;11991;57.150;-2.134;2023-04-01T23:14:32;7.10;99.90
23629;DHT22;11991;57.150;-2.134;2023-04-01T23:31:30;7.00;99.90
23629;DHT22;11991;57.150;-2.134;2023-04-01T23:36:49;7.00;99.90
23629;DHT22;11991;57.150;-2.134;2023-04-01T23:39:39;7.00;99.90
23629;DHT22;11991;57.150;-2.134;2023-04-01T23:44:48;6.90;99.90
23629;DHT22;11991;57.150;-2.134;2023-04-01T23:47:30;6.90;99.90
23629;DHT22;11991;57.150;-2.134;2023-04-01T23:50:03;6.90;99.90
23629;DHT22;11991;57.150;-2.134;2023-04-01T23:52:35;6.90;99.90
23629;DHT22;11991;57.150;-2.134;2023-04-01T23:55:23;6.90;99.90
23629;DHT22;11991;57.150;-2.134;2023-04-01T23:58:26;6.90;99.90
